sensor_id;sensor_type;location;lat;lon;timestamp;P1;durP1;ratioP1;P2;durP2;ratioP2
47483;SDS011;54076;50.322;18.650;2023-03-17T00:02:30;92.20;;;32.40;;
47483;SDS011;54076;50.322;18.650;2023-03-17T00:07:31;104.30;;;32.30;;
47483;SDS011;54076;50.322;18.650;2023-03-17T00:12:32;96.60;;;32.50;;
47483;SDS011;54076;50.322;18.650;2023-03-17T00:17:33;95.70;;;31.90;;
47483;SDS011;54076;50.322;18.650;2023-03-17T00:22:34;89.20;;;29.70;;
47483;SDS011;54076;50.322;18.650;2023-03-17T00:27:35;96.70;;;32.20;;
47483;SDS011;54076;50.322;18.650;2023-03-17T00:32:37;81.40;;;29.30;;
47483;SDS011;54076;50.322;18.650;2023-03-17T00:37:39;99.30;;;32.80;;
47483;SDS011;54076;50.322;18.650;2023-03-17T00:42:41;93.90;;;30.10;;
47483;SDS011;54076;50.322;18.650;2023-03-17T00:47:43;98.50;;;30.80;;
47483;SDS011;54076;50.322;18.650;2023-03-17T00:52:45;93.70;;;30.10;;
47483;SDS011;54076;50.322;18.650;2023-03-17T00:57:47;85.30;;;28.70;;
47483;SDS011;54076;50.322;18.650;2023-03-17T01:02:50;93.50;;;31.00;;
47483;SDS011;54076;50.322;18.650;2023-03-17T01:07:54;93.40;;;29.60;;
47483;SDS011;54076;50.322;18.650;2023-03-17T01:12:57;79.00;;;27.90;;
47483;SDS011;54076;50.322;18.650;2023-03-17T01:18:00;87.20;;;28.90;;
47483;SDS011;54076;50.322;18.650;2023-03-17T01:23:02;85.20;;;28.50;;
47483;SDS011;54076;50.322;18.650;2023-03-17T01:28:05;90.80;;;31.60;;
47483;SDS011;54076;50.322;18.650;2023-03-17T01:33:07;92.60;;;29.80;;
47483;SDS011;54076;50.322;18.650;2023-03-17T01:38:11;89.10;;;31.20;;
47483;SDS011;54076;50.322;18.650;2023-03-17T01:43:26;97.50;;;32.20;;
47483;SDS011;54076;50.322;18.650;2023-03-17T01:48:29;105.20;;;34.80;;
47483;SDS011;54076;50.322;18.650;2023-03-17T01:53:37;97.40;;;35.90;;
47483;SDS011;54076;50.322;18.650;2023-03-17T01:58:39;107.00;;;35.40;;
47483;SDS011;54076;50.322;18.650;2023-03-17T02:03:41;110.10;;;35.80;;
47483;SDS011;54076;50.322;18.650;2023-03-17T02:08:42;107.60;;;37.80;;
47483;SDS011;54076;50.322;18.650;2023-03-17T02:13:43;120.00;;;37.40;;
47483;SDS011;54076;50.322;18.650;2023-03-17T02:18:45;103.40;;;37.20;;
47483;SDS011;54076;50.322;18.650;2023-03-17T02:23:46;115.60;;;36.90;;
47483;SDS011;54076;50.322;18.650;2023-03-17T02:28:47;102.40;;;37.40;;
47483;SDS011;54076;50.322;18.650;2023-03-17T02:33:48;106.20;;;35.90;;
47483;SDS011;54076;50.322;18.650;2023-03-17T02:38:50;99.60;;;34.60;;
47483;SDS011;54076;50.322;18.650;2023-03-17T02:43:51;108.10;;;37.40;;
47483;SDS011;54076;50.322;18.650;2023-03-17T02:48:53;100.80;;;35.40;;
47483;SDS011;54076;50.322;18.650;2023-03-17T02:53:56;111.00;;;37.00;;
47483;SDS011;54076;50.322;18.650;2023-03-17T02:58:57;103.20;;;37.80;;
47483;SDS011;54076;50.322;18.650;2023-03-17T03:03:58;110.00;;;37.20;;
47483;SDS011;54076;50.322;18.650;2023-03-17T03:08:59;106.60;;;37.00;;
47483;SDS011;54076;50.322;18.650;2023-03-17T03:14:00;91.60;;;34.30;;
47483;SDS011;54076;50.322;18.650;2023-03-17T03:19:02;98.10;;;35.30;;
47483;SDS011;54076;50.322;18.650;2023-03-17T03:24:04;98.10;;;34.40;;
47483;SDS011;54076;50.322;18.650;2023-03-17T03:29:06;91.80;;;32.70;;
47483;SDS011;54076;50.322;18.650;2023-03-17T03:34:07;99.60;;;37.00;;
47483;SDS011;54076;50.322;18.650;2023-03-17T03:39:08;98.80;;;36.00;;
47483;SDS011;54076;50.322;18.650;2023-03-17T03:44:09;100.20;;;35.30;;
47483;SDS011;54076;50.322;18.650;2023-03-17T03:49:11;102.90;;;35.90;;
47483;SDS011;54076;50.322;18.650;2023-03-17T03:54:12;92.20;;;33.60;;
47483;SDS011;54076;50.322;18.650;2023-03-17T03:59:13;98.80;;;33.90;;
47483;SDS011;54076;50.322;18.650;2023-03-17T04:04:14;82.20;;;32.50;;
47483;SDS011;54076;50.322;18.650;2023-03-17T04:09:15;76.60;;;29.30;;
47483;SDS011;54076;50.322;18.650;2023-03-17T04:14:17;77.70;;;29.90;;
47483;SDS011;54076;50.322;18.650;2023-03-17T04:19:18;78.10;;;28.90;;
47483;SDS011;54076;50.322;18.650;2023-03-17T04:24:21;82.70;;;31.10;;
47483;SDS011;54076;50.322;18.650;2023-03-17T04:29:22;65.60;;;27.90;;
47483;SDS011;54076;50.322;18.650;2023-03-17T04:34:23;69.80;;;26.80;;
47483;SDS011;54076;50.322;18.650;2023-03-17T04:39:24;66.40;;;27.30;;
47483;SDS011;54076;50.322;18.650;2023-03-17T04:44:25;65.90;;;26.60;;
47483;SDS011;54076;50.322;18.650;2023-03-17T04:49:27;74.50;;;30.20;;
47483;SDS011;54076;50.322;18.650;2023-03-17T04:54:28;74.00;;;27.30;;
47483;SDS011;54076;50.322;18.650;2023-03-17T04:59:29;68.60;;;27.80;;
47483;SDS011;54076;50.322;18.650;2023-03-17T05:04:30;56.00;;;25.00;;
47483;SDS011;54076;50.322;18.650;2023-03-17T05:09:32;74.20;;;27.70;;
47483;SDS011;54076;50.322;18.650;2023-03-17T05:14:33;69.70;;;27.00;;
47483;SDS011;54076;50.322;18.650;2023-03-17T05:19:34;69.50;;;27.10;;
47483;SDS011;54076;50.322;18.650;2023-03-17T05:24:35;69.60;;;28.10;;
47483;SDS011;54076;50.322;18.650;2023-03-17T05:29:36;68.80;;;28.10;;
47483;SDS011;54076;50.322;18.650;2023-03-17T05:34:37;70.20;;;27.40;;
47483;SDS011;54076;50.322;18.650;2023-03-17T05:39:39;69.30;;;28.30;;
47483;SDS011;54076;50.322;18.650;2023-03-17T05:44:40;68.30;;;28.40;;
47483;SDS011;54076;50.322;18.650;2023-03-17T05:49:41;81.90;;;30.30;;
47483;SDS011;54076;50.322;18.650;2023-03-17T05:54:42;67.40;;;27.80;;
47483;SDS011;54076;50.322;18.650;2023-03-17T05:59:44;65.70;;;27.60;;
47483;SDS011;54076;50.322;18.650;2023-03-17T06:04:45;65.20;;;26.80;;
47483;SDS011;54076;50.322;18.650;2023-03-17T06:09:47;71.70;;;27.00;;
47483;SDS011;54076;50.322;18.650;2023-03-17T06:14:48;65.60;;;25.80;;
47483;SDS011;54076;50.322;18.650;2023-03-17T06:19:49;64.10;;;25.70;;
47483;SDS011;54076;50.322;18.650;2023-03-17T06:24:50;57.50;;;24.00;;
47483;SDS011;54076;50.322;18.650;2023-03-17T06:29:53;61.40;;;24.00;;
47483;SDS011;54076;50.322;18.650;2023-03-17T06:34:54;57.20;;;24.40;;
47483;SDS011;54076;50.322;18.650;2023-03-17T06:39:55;62.70;;;23.80;;
47483;SDS011;54076;50.322;18.650;2023-03-17T06:44:57;68.90;;;25.70;;
47483;SDS011;54076;50.322;18.650;2023-03-17T06:49:58;57.90;;;23.70;;
47483;SDS011;54076;50.322;18.650;2023-03-17T06:54:59;60.60;;;23.90;;
47483;SDS011;54076;50.322;18.650;2023-03-17T07:00:00;53.20;;;22.20;;
47483;SDS011;54076;50.322;18.650;2023-03-17T07:05:01;50.60;;;21.90;;
47483;SDS011;54076;50.322;18.650;2023-03-17T07:10:03;54.60;;;22.10;;
47483;SDS011;54076;50.322;18.650;2023-03-17T07:15:06;51.40;;;20.80;;
47483;SDS011;54076;50.322;18.650;2023-03-17T07:20:09;50.50;;;19.30;;
47483;SDS011;54076;50.322;18.650;2023-03-17T07:25:11;53.30;;;20.70;;
47483;SDS011;54076;50.322;18.650;2023-03-17T07:30:12;47.00;;;19.40;;
47483;SDS011;54076;50.322;18.650;2023-03-17T07:35:18;40.60;;;19.00;;
47483;SDS011;54076;50.322;18.650;2023-03-17T07:40:19;45.70;;;18.10;;
47483;SDS011;54076;50.322;18.650;2023-03-17T07:45:21;34.70;;;16.30;;
47483;SDS011;54076;50.322;18.650;2023-03-17T07:50:22;36.60;;;15.40;;
47483;SDS011;54076;50.322;18.650;2023-03-17T07:55:23;37.20;;;17.30;;
47483;SDS011;54076;50.322;18.650;2023-03-17T08:00:25;35.60;;;16.10;;
47483;SDS011;54076;50.322;18.650;2023-03-17T08:05:28;36.90;;;16.20;;
47483;SDS011;54076;50.322;18.650;2023-03-17T08:10:30;36.10;;;15.60;;
47483;SDS011;54076;50.322;18.650;2023-03-17T08:15:31;33.80;;;14.10;;
47483;SDS011;54076;50.322;18.650;2023-03-17T08:20:33;37.00;;;14.20;;
47483;SDS011;54076;50.322;18.650;2023-03-17T08:25:34;33.70;;;14.30;;
47483;SDS011;54076;50.322;18.650;2023-03-17T08:30:36;27.00;;;11.90;;
47483;SDS011;54076;50.322;18.650;2023-03-17T08:35:39;37.20;;;19.70;;
47483;SDS011;54076;50.322;18.650;2023-03-17T08:40:41;32.80;;;14.00;;
47483;SDS011;54076;50.322;18.650;2023-03-17T08:45:42;22.70;;;10.80;;
47483;SDS011;54076;50.322;18.650;2023-03-17T08:50:44;22.20;;;10.30;;
47483;SDS011;54076;50.322;18.650;2023-03-17T08:55:45;23.30;;;10.50;;
47483;SDS011;54076;50.322;18.650;2023-03-17T09:00:46;17.20;;;8.20;;
47483;SDS011;54076;50.322;18.650;2023-03-17T09:05:48;15.00;;;7.10;;
47483;SDS011;54076;50.322;18.650;2023-03-17T09:10:51;15.70;;;7.20;;
47483;SDS011;54076;50.322;18.650;2023-03-17T09:15:52;16.80;;;6.80;;
47483;SDS011;54076;50.322;18.650;2023-03-17T09:20:53;15.60;;;6.50;;
47483;SDS011;54076;50.322;18.650;2023-03-17T09:25:54;13.40;;;6.30;;
47483;SDS011;54076;50.322;18.650;2023-03-17T09:31:01;14.30;;;6.60;;
47483;SDS011;54076;50.322;18.650;2023-03-17T09:36:05;15.50;;;7.00;;
47483;SDS011;54076;50.322;18.650;2023-03-17T09:52:13;22.10;;;8.40;;
47483;SDS011;54076;50.322;18.650;2023-03-17T09:57:23;18.10;;;8.70;;
47483;SDS011;54076;50.322;18.650;2023-03-17T10:02:33;14.90;;;7.00;;
47483;SDS011;54076;50.322;18.650;2023-03-17T10:07:46;19.20;;;5.90;;
47483;SDS011;54076;50.322;18.650;2023-03-17T10:12:56;16.90;;;8.80;;
47483;SDS011;54076;50.322;18.650;2023-03-17T10:18:15;14.20;;;6.70;;
47483;SDS011;54076;50.322;18.650;2023-03-17T10:23:19;14.40;;;6.10;;
47483;SDS011;54076;50.322;18.650;2023-03-17T10:28:31;15.20;;;6.60;;
47483;SDS011;54076;50.322;18.650;2023-03-17T10:33:38;15.20;;;7.00;;
47483;SDS011;54076;50.322;18.650;2023-03-17T10:38:39;15.70;;;6.20;;
47483;SDS011;54076;50.322;18.650;2023-03-17T10:43:43;15.80;;;6.70;;
47483;SDS011;54076;50.322;18.650;2023-03-17T10:48:52;12.00;;;6.20;;
47483;SDS011;54076;50.322;18.650;2023-03-17T10:53:59;15.60;;;7.80;;
47483;SDS011;54076;50.322;18.650;2023-03-17T10:59:21;22.80;;;15.00;;
47483;SDS011;54076;50.322;18.650;2023-03-17T11:04:29;20.40;;;9.30;;
47483;SDS011;54076;50.322;18.650;2023-03-17T11:09:34;16.10;;;8.00;;
47483;SDS011;54076;50.322;18.650;2023-03-17T11:14:36;13.40;;;6.50;;
47483;SDS011;54076;50.322;18.650;2023-03-17T11:19:51;10.80;;;4.80;;
47483;SDS011;54076;50.322;18.650;2023-03-17T11:25:12;10.50;;;4.60;;
47483;SDS011;54076;50.322;18.650;2023-03-17T11:30:34;10.70;;;3.80;;
47483;SDS011;54076;50.322;18.650;2023-03-17T12:02:41;8.30;;;4.10;;
47483;SDS011;54076;50.322;18.650;2023-03-17T12:13:09;9.90;;;4.70;;
47483;SDS011;54076;50.322;18.650;2023-03-17T12:28:33;10.50;;;4.10;;
47483;SDS011;54076;50.322;18.650;2023-03-17T12:39:39;9.20;;;4.00;;
47483;SDS011;54076;50.322;18.650;2023-03-17T12:56:43;16.50;;;5.60;;
47483;SDS011;54076;50.322;18.650;2023-03-17T13:01:55;9.10;;;4.70;;
47483;SDS011;54076;50.322;18.650;2023-03-17T13:17:42;11.10;;;5.50;;
47483;SDS011;54076;50.322;18.650;2023-03-17T13:23:11;10.40;;;5.30;;
47483;SDS011;54076;50.322;18.650;2023-03-17T13:28:22;11.80;;;5.70;;
47483;SDS011;54076;50.322;18.650;2023-03-17T13:33:30;11.30;;;4.90;;
47483;SDS011;54076;50.322;18.650;2023-03-17T13:50:15;13.60;;;6.20;;
47483;SDS011;54076;50.322;18.650;2023-03-17T14:00:27;12.00;;;5.10;;
47483;SDS011;54076;50.322;18.650;2023-03-17T14:05:33;10.00;;;5.10;;
47483;SDS011;54076;50.322;18.650;2023-03-17T14:10:37;11.10;;;5.10;;
47483;SDS011;54076;50.322;18.650;2023-03-17T14:15:58;11.80;;;5.10;;
47483;SDS011;54076;50.322;18.650;2023-03-17T14:21:05;11.80;;;5.50;;
47483;SDS011;54076;50.322;18.650;2023-03-17T14:26:09;11.60;;;4.70;;
47483;SDS011;54076;50.322;18.650;2023-03-17T14:31:22;10.90;;;4.40;;
47483;SDS011;54076;50.322;18.650;2023-03-17T14:36:27;11.40;;;4.90;;
47483;SDS011;54076;50.322;18.650;2023-03-17T14:41:33;10.80;;;4.90;;
47483;SDS011;54076;50.322;18.650;2023-03-17T14:46:36;10.40;;;4.70;;
47483;SDS011;54076;50.322;18.650;2023-03-17T14:51:38;9.00;;;4.30;;
47483;SDS011;54076;50.322;18.650;2023-03-17T14:56:44;11.40;;;4.80;;
47483;SDS011;54076;50.322;18.650;2023-03-17T15:01:52;11.80;;;4.80;;
47483;SDS011;54076;50.322;18.650;2023-03-17T15:07:24;12.10;;;5.10;;
47483;SDS011;54076;50.322;18.650;2023-03-17T15:12:30;11.50;;;5.50;;
47483;SDS011;54076;50.322;18.650;2023-03-17T15:17:35;11.50;;;5.50;;
47483;SDS011;54076;50.322;18.650;2023-03-17T15:27:38;10.20;;;4.70;;
47483;SDS011;54076;50.322;18.650;2023-03-17T15:32:39;12.90;;;5.30;;
47483;SDS011;54076;50.322;18.650;2023-03-17T15:37:40;11.10;;;5.40;;
47483;SDS011;54076;50.322;18.650;2023-03-17T15:42:41;16.80;;;5.60;;
47483;SDS011;54076;50.322;18.650;2023-03-17T15:47:43;10.80;;;5.40;;
47483;SDS011;54076;50.322;18.650;2023-03-17T15:52:46;11.80;;;5.40;;
47483;SDS011;54076;50.322;18.650;2023-03-17T15:57:47;12.40;;;5.40;;
47483;SDS011;54076;50.322;18.650;2023-03-17T16:02:52;13.10;;;5.60;;
47483;SDS011;54076;50.322;18.650;2023-03-17T16:07:56;13.20;;;5.50;;
47483;SDS011;54076;50.322;18.650;2023-03-17T16:12:58;13.40;;;4.90;;
47483;SDS011;54076;50.322;18.650;2023-03-17T16:18:21;8.80;;;4.60;;
47483;SDS011;54076;50.322;18.650;2023-03-17T16:23:32;10.90;;;4.80;;
47483;SDS011;54076;50.322;18.650;2023-03-17T16:28:34;12.30;;;5.40;;
47483;SDS011;54076;50.322;18.650;2023-03-17T16:33:38;11.80;;;5.60;;
47483;SDS011;54076;50.322;18.650;2023-03-17T16:38:40;11.00;;;5.60;;
47483;SDS011;54076;50.322;18.650;2023-03-17T16:43:42;13.50;;;5.50;;
47483;SDS011;54076;50.322;18.650;2023-03-17T16:48:47;11.10;;;5.10;;
47483;SDS011;54076;50.322;18.650;2023-03-17T16:53:49;12.60;;;5.30;;
47483;SDS011;54076;50.322;18.650;2023-03-17T16:58:50;16.40;;;5.60;;
47483;SDS011;54076;50.322;18.650;2023-03-17T17:03:52;16.40;;;6.20;;
47483;SDS011;54076;50.322;18.650;2023-03-17T17:08:53;17.20;;;6.50;;
47483;SDS011;54076;50.322;18.650;2023-03-17T17:13:54;19.60;;;7.80;;
47483;SDS011;54076;50.322;18.650;2023-03-17T17:18:55;17.80;;;8.10;;
47483;SDS011;54076;50.322;18.650;2023-03-17T17:23:57;23.60;;;10.10;;
47483;SDS011;54076;50.322;18.650;2023-03-17T17:28:58;25.30;;;10.40;;
47483;SDS011;54076;50.322;18.650;2023-03-17T17:34:00;24.90;;;10.80;;
47483;SDS011;54076;50.322;18.650;2023-03-17T17:39:01;26.20;;;9.90;;
47483;SDS011;54076;50.322;18.650;2023-03-17T17:44:02;24.30;;;10.20;;
47483;SDS011;54076;50.322;18.650;2023-03-17T17:49:05;21.80;;;9.80;;
47483;SDS011;54076;50.322;18.650;2023-03-17T17:54:06;22.80;;;9.60;;
47483;SDS011;54076;50.322;18.650;2023-03-17T17:59:08;24.50;;;10.30;;
47483;SDS011;54076;50.322;18.650;2023-03-17T18:04:10;21.70;;;10.90;;
47483;SDS011;54076;50.322;18.650;2023-03-17T18:09:13;25.10;;;10.90;;
47483;SDS011;54076;50.322;18.650;2023-03-17T18:14:15;28.10;;;11.70;;
47483;SDS011;54076;50.322;18.650;2023-03-17T18:19:16;29.20;;;13.50;;
47483;SDS011;54076;50.322;18.650;2023-03-17T18:24:17;36.70;;;15.50;;
47483;SDS011;54076;50.322;18.650;2023-03-17T18:29:19;37.50;;;15.10;;
47483;SDS011;54076;50.322;18.650;2023-03-17T18:34:31;42.10;;;17.90;;
47483;SDS011;54076;50.322;18.650;2023-03-17T18:39:38;42.60;;;18.70;;
47483;SDS011;54076;50.322;18.650;2023-03-17T18:44:40;47.80;;;20.20;;
47483;SDS011;54076;50.322;18.650;2023-03-17T18:49:41;51.40;;;21.70;;
47483;SDS011;54076;50.322;18.650;2023-03-17T18:54:43;57.30;;;23.00;;
47483;SDS011;54076;50.322;18.650;2023-03-17T18:59:44;57.20;;;23.00;;
47483;SDS011;54076;50.322;18.650;2023-03-17T19:04:45;49.20;;;20.60;;
47483;SDS011;54076;50.322;18.650;2023-03-17T19:09:47;55.60;;;23.40;;
47483;SDS011;54076;50.322;18.650;2023-03-17T19:14:48;50.00;;;22.20;;
47483;SDS011;54076;50.322;18.650;2023-03-17T19:19:49;57.00;;;23.50;;
47483;SDS011;54076;50.322;18.650;2023-03-17T19:24:51;63.60;;;23.20;;
47483;SDS011;54076;50.322;18.650;2023-03-17T19:29:53;61.80;;;23.30;;
47483;SDS011;54076;50.322;18.650;2023-03-17T19:34:54;48.20;;;20.60;;
47483;SDS011;54076;50.322;18.650;2023-03-17T19:39:55;52.00;;;21.00;;
47483;SDS011;54076;50.322;18.650;2023-03-17T19:44:56;47.50;;;21.00;;
47483;SDS011;54076;50.322;18.650;2023-03-17T19:49:57;48.20;;;19.20;;
47483;SDS011;54076;50.322;18.650;2023-03-17T19:54:58;48.90;;;19.60;;
47483;SDS011;54076;50.322;18.650;2023-03-17T19:59:59;44.60;;;18.80;;
47483;SDS011;54076;50.322;18.650;2023-03-17T20:05:00;50.40;;;20.10;;
47483;SDS011;54076;50.322;18.650;2023-03-17T20:10:02;54.60;;;21.30;;
47483;SDS011;54076;50.322;18.650;2023-03-17T20:15:05;47.30;;;19.80;;
47483;SDS011;54076;50.322;18.650;2023-03-17T20:20:08;52.70;;;19.90;;
47483;SDS011;54076;50.322;18.650;2023-03-17T20:25:10;50.90;;;20.90;;
47483;SDS011;54076;50.322;18.650;2023-03-17T20:30:18;51.90;;;20.50;;
47483;SDS011;54076;50.322;18.650;2023-03-17T20:35:19;49.40;;;19.80;;
47483;SDS011;54076;50.322;18.650;2023-03-17T20:40:20;46.10;;;20.40;;
47483;SDS011;54076;50.322;18.650;2023-03-17T20:45:21;52.10;;;21.40;;
47483;SDS011;54076;50.322;18.650;2023-03-17T20:50:23;59.80;;;23.20;;
47483;SDS011;54076;50.322;18.650;2023-03-17T20:55:24;65.50;;;24.80;;
47483;SDS011;54076;50.322;18.650;2023-03-17T21:00:25;65.20;;;25.90;;
47483;SDS011;54076;50.322;18.650;2023-03-17T21:05:26;72.90;;;27.70;;
47483;SDS011;54076;50.322;18.650;2023-03-17T21:10:28;68.80;;;27.70;;
47483;SDS011;54076;50.322;18.650;2023-03-17T21:15:29;68.90;;;26.00;;
47483;SDS011;54076;50.322;18.650;2023-03-17T21:20:30;61.70;;;22.20;;
47483;SDS011;54076;50.322;18.650;2023-03-17T21:25:31;49.90;;;21.20;;
47483;SDS011;54076;50.322;18.650;2023-03-17T21:30:33;44.90;;;20.20;;
47483;SDS011;54076;50.322;18.650;2023-03-17T21:35:36;45.00;;;18.60;;
47483;SDS011;54076;50.322;18.650;2023-03-17T21:40:37;49.20;;;19.10;;
47483;SDS011;54076;50.322;18.650;2023-03-17T21:45:38;51.60;;;19.40;;
47483;SDS011;54076;50.322;18.650;2023-03-17T21:50:40;48.60;;;19.90;;
47483;SDS011;54076;50.322;18.650;2023-03-17T21:55:42;51.20;;;20.30;;
47483;SDS011;54076;50.322;18.650;2023-03-17T22:00:43;53.00;;;20.70;;
47483;SDS011;54076;50.322;18.650;2023-03-17T22:05:45;56.30;;;19.90;;
47483;SDS011;54076;50.322;18.650;2023-03-17T22:10:46;52.00;;;19.00;;
47483;SDS011;54076;50.322;18.650;2023-03-17T22:15:48;54.10;;;21.20;;
47483;SDS011;54076;50.322;18.650;2023-03-17T22:20:56;53.10;;;20.40;;
47483;SDS011;54076;50.322;18.650;2023-03-17T22:25:58;53.60;;;18.40;;
47483;SDS011;54076;50.322;18.650;2023-03-17T22:30:59;49.30;;;19.90;;
47483;SDS011;54076;50.322;18.650;2023-03-17T22:36:01;48.00;;;18.50;;
47483;SDS011;54076;50.322;18.650;2023-03-17T22:41:08;58.90;;;21.10;;
47483;SDS011;54076;50.322;18.650;2023-03-17T22:46:13;50.50;;;20.30;;
47483;SDS011;54076;50.322;18.650;2023-03-17T22:51:18;52.50;;;20.20;;
47483;SDS011;54076;50.322;18.650;2023-03-17T22:56:21;54.60;;;19.20;;
47483;SDS011;54076;50.322;18.650;2023-03-17T23:01:23;51.00;;;19.30;;
47483;SDS011;54076;50.322;18.650;2023-03-17T23:06:25;50.40;;;19.70;;
47483;SDS011;54076;50.322;18.650;2023-03-17T23:11:26;50.50;;;20.00;;
47483;SDS011;54076;50.322;18.650;2023-03-17T23:16:27;48.20;;;18.30;;
47483;SDS011;54076;50.322;18.650;2023-03-17T23:21:31;54.00;;;19.30;;
47483;SDS011;54076;50.322;18.650;2023-03-17T23:26:35;47.70;;;18.40;;
47483;SDS011;54076;50.322;18.650;2023-03-17T23:31:36;52.20;;;18.50;;
47483;SDS011;54076;50.322;18.650;2023-03-17T23:36:39;49.00;;;19.00;;
47483;SDS011;54076;50.322;18.650;2023-03-17T23:41:40;44.90;;;18.40;;
47483;SDS011;54076;50.322;18.650;2023-03-17T23:46:41;48.50;;;17.60;;
47483;SDS011;54076;50.322;18.650;2023-03-17T23:51:44;47.30;;;17.20;;
47483;SDS011;54076;50.322;18.650;2023-03-17T23:56:45;47.00;;;19.00;;
